createdAt,value
2023-03-29T00:01:52.971Z,101511.06
2023-03-29T00:04:22.832Z,101513.53
2023-03-29T00:06:50.502Z,101505.09
2023-03-29T00:09:18.148Z,101501.81
2023-03-29T00:11:45.953Z,101504.66
2023-03-29T00:14:13.603Z,101507.13
2023-03-29T00:16:41.307Z,101497.47
2023-03-29T00:19:08.905Z,101497.25
2023-03-29T00:21:37.802Z,101492.47
2023-03-29T00:24:05.627Z,101494.25
2023-03-29T00:26:33.169Z,101488.94
2023-03-29T00:29:00.839Z,101485.78
2023-03-29T00:31:28.603Z,101480.97
2023-03-29T00:33:56.733Z,101472.59
2023-03-29T00:36:24.409Z,101472.47
2023-03-29T00:38:53.267Z,101471.53
2023-03-29T00:41:21.525Z,101467.56
2023-03-29T00:43:53.802Z,101450.50
2023-03-29T00:46:21.372Z,101451.50
2023-03-29T00:48:49.588Z,101442.44
2023-03-29T00:51:19.988Z,101425.34
2023-03-29T00:53:51.276Z,101420.06
2023-03-29T00:56:24.188Z,101416.78
2023-03-29T00:58:58.400Z,101411.00
2023-03-29T01:01:33.946Z,101403.94
2023-03-29T01:04:08.296Z,101396.00
2023-03-29T01:06:39.501Z,101398.66
2023-03-29T01:09:13.613Z,101394.84
2023-03-29T01:11:47.017Z,101397.50
2023-03-29T01:14:20.728Z,101387.72
2023-03-29T01:16:48.729Z,101382.75
2023-03-29T01:19:21.287Z,101379.41
2023-03-29T01:21:53.617Z,101379.41
2023-03-29T01:24:41.908Z,101371.81
2023-03-29T01:27:18.006Z,101369.31
2023-03-29T01:29:50.333Z,101369.81
2023-03-29T01:32:23.126Z,101363.88
2023-03-29T01:34:56.445Z,101362.84
2023-03-29T01:37:29.990Z,101352.25
2023-03-29T01:39:57.632Z,101352.25
2023-03-29T01:42:35.646Z,101358.38
2023-03-29T01:45:14.176Z,101346.13
2023-03-29T01:47:47.991Z,101346.63
2023-03-29T01:50:20.238Z,101340.03
2023-03-29T01:52:55.145Z,101342.66
2023-03-29T01:55:26.828Z,101341.34
2023-03-29T01:57:57.215Z,101336.34
2023-03-29T02:00:29.473Z,101331.75
2023-03-29T02:03:04.388Z,101316.81
2023-03-29T02:05:32.641Z,101326.78
2023-03-29T02:08:02.481Z,101318.81
2023-03-29T02:10:33.288Z,101309.34
2023-03-29T02:13:01.341Z,101308.03
2023-03-29T02:15:30.369Z,101295.25
2023-03-29T02:17:58.079Z,101296.72
2023-03-29T02:20:31.485Z,101291.88
2023-03-29T02:23:05.786Z,101293.22
2023-03-29T02:25:33.545Z,101293.66
2023-03-29T02:28:02.116Z,101287.53
2023-03-29T02:30:39.274Z,101283.19
2023-03-29T02:33:11.825Z,101286.66
2023-03-29T02:35:46.079Z,101287.13
2023-03-29T02:38:14.595Z,101273.56
2023-03-29T02:40:43.798Z,101278.16
2023-03-29T02:43:13.790Z,101273.09
2023-03-29T02:45:44.408Z,101270.06
2023-03-29T02:48:19.046Z,101268.88
2023-03-29T02:50:50.871Z,101261.31
2023-03-29T02:53:24.052Z,101260.31
2023-03-29T02:55:52.802Z,101247.38
2023-03-29T02:58:28.582Z,101250.34
2023-03-29T03:01:01.726Z,101241.78
2023-03-29T03:03:29.909Z,101248.06
2023-03-29T03:06:01.516Z,101235.97
2023-03-29T03:08:30.880Z,101238.50
2023-03-29T03:10:59.603Z,101239.97
2023-03-29T03:13:27.424Z,101234.50
2023-03-29T03:15:55.039Z,101238.81
2023-03-29T03:18:24.035Z,101229.56
2023-03-29T03:20:59.126Z,101232.03
2023-03-29T03:23:26.830Z,101222.41
2023-03-29T03:25:55.130Z,101220.91
2023-03-29T03:28:24.151Z,101219.91
2023-03-29T03:30:51.708Z,101217.63
2023-03-29T03:33:39.337Z,101218.97
2023-03-29T03:36:36.166Z,101215.63
2023-03-29T03:39:06.872Z,101210.97
2023-03-29T03:41:35.671Z,101209.34
2023-03-29T03:44:04.307Z,101205.69
2023-03-29T03:46:32.358Z,101205.34
2023-03-29T03:49:04.494Z,101199.75
2023-03-29T03:51:41.828Z,101205.00
2023-03-29T03:54:10.090Z,101193.78
2023-03-29T03:56:38.072Z,101196.13
2023-03-29T03:59:12.786Z,101187.84
2023-03-29T04:02:03.946Z,101199.22
2023-03-29T04:04:34.223Z,101200.44
2023-03-29T04:07:20.573Z,101199.41
2023-03-29T04:10:17.161Z,101194.13
2023-03-29T04:12:51.840Z,101186.84
2023-03-29T04:15:21.546Z,101192.81
2023-03-29T04:17:57.395Z,101190.00
2023-03-29T04:20:35.855Z,101189.47
2023-03-29T04:23:03.611Z,101184.88
2023-03-29T04:25:32.305Z,101185.88
2023-03-29T04:28:00.815Z,101184.88
2023-03-29T04:30:41.090Z,101195.78
2023-03-29T04:33:19.889Z,101189.16
2023-03-29T04:35:55.300Z,101182.88
2023-03-29T04:38:23.673Z,101180.25
2023-03-29T04:40:54.879Z,101183.91
2023-03-29T04:43:41.252Z,101190.84
2023-03-29T04:46:17.645Z,101178.31
2023-03-29T04:49:07.981Z,101180.63
2023-03-29T04:51:41.057Z,101182.25
2023-03-29T04:54:09.622Z,101174.50
2023-03-29T04:56:56.645Z,101168.03
2023-03-29T04:59:44.575Z,101161.13
2023-03-29T05:02:50.373Z,101158.09
2023-03-29T05:05:18.326Z,101159.44
2023-03-29T05:07:49.595Z,101165.56
2023-03-29T05:10:21.781Z,101163.72
2023-03-29T05:12:53.851Z,101161.75
2023-03-29T05:15:22.947Z,101160.47
2023-03-29T05:17:50.770Z,101165.78
2023-03-29T05:20:18.740Z,101159.31
2023-03-29T05:22:49.526Z,101157.81
2023-03-29T05:25:40.473Z,101151.69
2023-03-29T05:28:08.523Z,101157.47
2023-03-29T05:30:36.228Z,101153.50
2023-03-29T05:33:22.423Z,101156.78
2023-03-29T05:35:50.040Z,101140.25
2023-03-29T05:38:19.066Z,101150.84
2023-03-29T05:40:46.748Z,101144.25
2023-03-29T05:43:39.405Z,101148.53
2023-03-29T05:46:07.638Z,101139.09
2023-03-29T05:48:37.461Z,101135.97
2023-03-29T05:51:06.206Z,101133.81
2023-03-29T05:53:35.265Z,101125.53
2023-03-29T05:56:03.911Z,101124.03
2023-03-29T05:58:31.622Z,101121.22
2023-03-29T06:01:00.700Z,101120.72
2023-03-29T06:03:53.419Z,101129.00
2023-03-29T06:06:24.688Z,101127.34
2023-03-29T06:08:53.969Z,101133.97
2023-03-29T06:11:31.538Z,101135.28
2023-03-29T06:14:23.241Z,101129.31
2023-03-29T06:16:56.560Z,101133.94
2023-03-29T06:19:24.511Z,101127.97
2023-03-29T06:21:53.143Z,101121.69
2023-03-29T06:24:26.912Z,101133.09
2023-03-29T06:27:01.595Z,101133.56
2023-03-29T06:29:30.911Z,101132.91
2023-03-29T06:31:58.764Z,101138.34
2023-03-29T06:34:46.645Z,101142.00
2023-03-29T06:37:26.276Z,101146.31
2023-03-29T06:40:07.300Z,101137.88
2023-03-29T06:42:44.610Z,101142.00
2023-03-29T06:45:33.949Z,101139.00
2023-03-29T06:48:05.856Z,101133.50
2023-03-29T06:50:33.493Z,101120.53
2023-03-29T06:53:20.518Z,101126.03
2023-03-29T06:55:56.937Z,101121.19
2023-03-29T06:58:41.781Z,101116.91
2023-03-29T07:01:28.838Z,101125.19
2023-03-29T07:04:08.138Z,101125.84
2023-03-29T07:06:51.171Z,101125.16
2023-03-29T07:09:20.416Z,101122.22
2023-03-29T07:12:09.898Z,101127.16
2023-03-29T07:14:37.646Z,101131.41
2023-03-29T07:17:05.732Z,101126.09
2023-03-29T07:19:35.020Z,101126.44
2023-03-29T07:22:09.795Z,101127.22
2023-03-29T07:24:54.431Z,101123.03
2023-03-29T07:27:23.609Z,101112.69
2023-03-29T07:29:51.346Z,101122.59
2023-03-29T07:32:19.986Z,101127.97
2023-03-29T07:34:58.398Z,101131.19
2023-03-29T07:37:32.394Z,101129.44
2023-03-29T07:40:00.989Z,101130.28
2023-03-29T07:42:30.141Z,101117.78
2023-03-29T07:44:58.438Z,101133.56
2023-03-29T07:47:30.541Z,101127.63
2023-03-29T07:49:59.392Z,101133.44
2023-03-29T07:52:29.861Z,101122.03
2023-03-29T07:54:57.979Z,101127.44
2023-03-29T07:57:33.925Z,101111.50
2023-03-29T08:00:10.681Z,101109.81
2023-03-29T08:02:41.998Z,101113.81
2023-03-29T08:05:12.661Z,101108.44
2023-03-29T08:07:50.393Z,101111.47
2023-03-29T08:10:47.453Z,101104.84
2023-03-29T08:13:37.261Z,101109.25
2023-03-29T08:16:23.383Z,101102.97
2023-03-29T08:19:03.276Z,101106.53
2023-03-29T08:21:47.938Z,101104.19
2023-03-29T08:24:17.230Z,101103.50
2023-03-29T08:26:50.249Z,101100.41
2023-03-29T08:29:22.249Z,101094.38
2023-03-29T08:31:50.160Z,101093.56
2023-03-29T08:34:17.905Z,101093.66
2023-03-29T08:37:04.843Z,101088.47
2023-03-29T08:39:39.137Z,101094.81
2023-03-29T08:42:38.215Z,101087.69
2023-03-29T08:45:15.566Z,101092.50
2023-03-29T08:47:55.102Z,101088.50
2023-03-29T08:50:31.612Z,101084.78
2023-03-29T08:53:03.435Z,101080.66
2023-03-29T08:55:59.105Z,101085.84
2023-03-29T08:58:55.157Z,101085.25
2023-03-29T09:01:26.341Z,101090.03
2023-03-29T09:04:04.728Z,101088.16
2023-03-29T09:06:57.773Z,101090.25
2023-03-29T09:09:34.971Z,101087.06
2023-03-29T09:12:24.025Z,101091.34
2023-03-29T09:15:04.053Z,101089.25
2023-03-29T09:17:41.522Z,101093.53
2023-03-29T09:20:22.824Z,101086.41
2023-03-29T09:23:03.525Z,101081.00
2023-03-29T09:25:54.425Z,101077.13
2023-03-29T09:28:36.984Z,101082.84
2023-03-29T09:31:12.835Z,101081.91
2023-03-29T09:33:47.696Z,101077.75
2023-03-29T09:36:23.243Z,101072.81
2023-03-29T09:38:54.464Z,101071.16
2023-03-29T09:41:31.419Z,101067.94
2023-03-29T09:44:07.339Z,101071.09
2023-03-29T09:46:43.227Z,101076.94
2023-03-29T09:49:17.621Z,101066.09
2023-03-29T09:51:49.550Z,101065.19
2023-03-29T09:54:18.770Z,101067.94
2023-03-29T09:57:14.424Z,101063.06
2023-03-29T09:59:42.614Z,101052.00
2023-03-29T10:02:12.849Z,101040.81
2023-03-29T10:04:43.097Z,101046.75
2023-03-29T10:07:18.923Z,101038.78
2023-03-29T10:09:53.394Z,101039.16
2023-03-29T10:12:22.963Z,101034.97
2023-03-29T10:14:54.247Z,101036.59
2023-03-29T10:17:24.566Z,101033.38
2023-03-29T10:19:57.695Z,101041.22
2023-03-29T10:22:27.684Z,101035.63
2023-03-29T10:24:57.885Z,101037.03
2023-03-29T10:27:28.105Z,101040.78
2023-03-29T10:29:57.550Z,101037.03
2023-03-29T10:32:30.795Z,101043.50
2023-03-29T10:35:09.233Z,101038.94
2023-03-29T10:37:41.389Z,101041.69
2023-03-29T10:40:21.782Z,101027.53
2023-03-29T10:42:52.024Z,101029.69
2023-03-29T10:45:21.421Z,101026.41
2023-03-29T10:47:49.676Z,101026.41
2023-03-29T10:50:18.724Z,101023.59
2023-03-29T10:52:46.406Z,101025.38
2023-03-29T10:55:14.930Z,101035.09
2023-03-29T10:57:50.260Z,101029.75
2023-03-29T11:00:24.841Z,101038.44
2023-03-29T11:03:07.232Z,101030.63
2023-03-29T11:05:43.701Z,101025.69
2023-03-29T11:08:38.875Z,101025.41
2023-03-29T11:11:20.702Z,101018.81
2023-03-29T11:13:58.073Z,101019.25
2023-03-29T11:16:34.745Z,101006.53
2023-03-29T11:19:39.997Z,101001.09
2023-03-29T11:22:14.648Z,101012.38
2023-03-29T11:24:55.816Z,101010.53
2023-03-29T11:27:34.269Z,101018.69
2023-03-29T11:30:08.832Z,101010.78
2023-03-29T11:32:48.986Z,101015.66
2023-03-29T11:35:47.521Z,101009.53
2023-03-29T11:38:24.377Z,101013.88
2023-03-29T11:40:59.354Z,101015.63
2023-03-29T11:43:32.239Z,101013.69
2023-03-29T11:46:05.674Z,101025.81
2023-03-29T11:48:39.522Z,101019.31
2023-03-29T11:51:14.005Z,101021.47
2023-03-29T11:53:51.224Z,101017.69
2023-03-29T11:56:27.641Z,101021.38
2023-03-29T11:59:01.389Z,101021.09
2023-03-29T12:01:34.279Z,101027.47
2023-03-29T12:04:06.623Z,101016.16
2023-03-29T12:06:42.290Z,101015.00
2023-03-29T12:09:24.153Z,101010.13
2023-03-29T12:11:57.416Z,101016.66
2023-03-29T12:14:29.209Z,101017.75
2023-03-29T12:17:01.948Z,101012.41
2023-03-29T12:19:32.652Z,101019.47
2023-03-29T12:22:01.301Z,101018.09
2023-03-29T12:24:34.367Z,101016.88
2023-03-29T12:27:20.249Z,101012.81
2023-03-29T12:30:07.386Z,101008.03
2023-03-29T12:32:49.234Z,101000.81
2023-03-29T12:35:42.764Z,100995.91
2023-03-29T12:38:31.153Z,100989.97
2023-03-29T12:41:41.505Z,100992.19
2023-03-29T12:44:27.822Z,100993.91
2023-03-29T12:47:20.299Z,100991.47
2023-03-29T12:49:48.644Z,100992.59
2023-03-29T12:52:27.398Z,100994.34
2023-03-29T12:54:57.223Z,100986.59
2023-03-29T12:57:39.419Z,100975.91
2023-03-29T13:00:21.966Z,100980.00
2023-03-29T13:03:01.831Z,100968.84
2023-03-29T13:05:33.489Z,100971.56
2023-03-29T13:08:12.359Z,100974.03
2023-03-29T13:10:42.425Z,100971.75
2023-03-29T13:13:18.068Z,100968.44
2023-03-29T13:15:46.504Z,100976.66
2023-03-29T13:18:34.465Z,100968.25
2023-03-29T13:21:15.018Z,100964.31
2023-03-29T13:23:54.166Z,100965.19
2023-03-29T13:26:38.169Z,100958.81
2023-03-29T13:29:22.343Z,100958.03
2023-03-29T13:32:00.894Z,100958.19
2023-03-29T13:34:39.975Z,100953.28
2023-03-29T13:37:23.873Z,100958.63
2023-03-29T13:39:53.661Z,100952.31
2023-03-29T13:42:25.318Z,100948.56
2023-03-29T13:45:05.857Z,100941.19
2023-03-29T13:47:48.930Z,100946.31
2023-03-29T13:50:36.342Z,100942.47
2023-03-29T13:53:11.586Z,100943.28
2023-03-29T13:55:46.540Z,100937.69
2023-03-29T13:58:21.620Z,100926.34
2023-03-29T14:00:54.206Z,100923.25
2023-03-29T14:03:29.539Z,100932.63
2023-03-29T14:05:59.995Z,100927.06
2023-03-29T14:08:32.008Z,100916.13
2023-03-29T14:11:03.288Z,100909.50
2023-03-29T14:13:31.771Z,100904.00
2023-03-29T14:16:04.252Z,100904.03
2023-03-29T14:18:35.758Z,100896.72
2023-03-29T14:21:03.891Z,100906.53
2023-03-29T14:23:33.734Z,100892.03
2023-03-29T14:26:09.081Z,100888.13
2023-03-29T14:28:36.734Z,100893.31
2023-03-29T14:31:07.780Z,100894.13
2023-03-29T14:33:37.191Z,100905.88
2023-03-29T14:36:06.356Z,100909.63
2023-03-29T14:38:37.472Z,100912.03
2023-03-29T14:41:06.301Z,100903.56
2023-03-29T14:43:34.073Z,100904.03
2023-03-29T14:46:06.804Z,100909.13
2023-03-29T14:48:35.633Z,100904.13
2023-03-29T14:51:04.045Z,100905.38
2023-03-29T14:53:34.220Z,100910.38
2023-03-29T14:56:02.426Z,100909.94
2023-03-29T14:58:34.141Z,100905.03
2023-03-29T15:01:08.051Z,100895.97
2023-03-29T15:03:43.772Z,100901.34
2023-03-29T15:06:14.399Z,100898.84
2023-03-29T15:08:54.139Z,100903.16
2023-03-29T15:11:30.728Z,100900.72
2023-03-29T15:14:02.554Z,100899.47
2023-03-29T15:16:32.664Z,100898.66
2023-03-29T15:19:02.793Z,100895.16
2023-03-29T15:21:34.039Z,100883.63
2023-03-29T15:24:03.872Z,100888.97
2023-03-29T15:26:33.623Z,100886.06
2023-03-29T15:29:08.830Z,100875.38
2023-03-29T15:31:39.610Z,100875.78
2023-03-29T15:34:09.758Z,100871.84
2023-03-29T15:36:42.084Z,100866.31
2023-03-29T15:39:13.070Z,100868.78
2023-03-29T15:41:40.992Z,100857.72
2023-03-29T15:44:08.990Z,100853.78
2023-03-29T15:46:38.180Z,100853.75
2023-03-29T15:49:05.868Z,100856.66
2023-03-29T15:51:33.457Z,100858.31
2023-03-29T15:54:01.001Z,100856.81
2023-03-29T15:56:28.546Z,100853.81
2023-03-29T15:58:56.144Z,100836.31
2023-03-29T16:01:33.594Z,100845.97
2023-03-29T16:04:03.514Z,100828.91
2023-03-29T16:06:31.214Z,100828.50
2023-03-29T16:08:58.987Z,100825.00
2023-03-29T16:11:26.903Z,100824.38
2023-03-29T16:13:56.114Z,100824.81
2023-03-29T16:16:23.815Z,100821.13
2023-03-29T16:18:51.476Z,100813.34
2023-03-29T16:21:23.352Z,100814.13
2023-03-29T16:23:51.279Z,100817.44
2023-03-29T16:26:18.854Z,100821.56
2023-03-29T16:28:46.383Z,100825.28
2023-03-29T16:31:14.945Z,100821.38
2023-03-29T16:33:42.587Z,100826.09
2023-03-29T16:36:11.586Z,100818.69
2023-03-29T16:38:40.674Z,100825.69
2023-03-29T16:41:08.566Z,100827.34
2023-03-29T16:43:38.549Z,100822.81
2023-03-29T16:46:08.505Z,100822.38
2023-03-29T16:48:36.100Z,100831.22
2023-03-29T16:51:03.930Z,100820.31
2023-03-29T16:53:31.625Z,100823.00
2023-03-29T16:56:00.770Z,100823.22
2023-03-29T16:58:28.433Z,100828.75
2023-03-29T17:00:56.861Z,100828.09
2023-03-29T17:03:25.581Z,100820.72
2023-03-29T17:05:54.699Z,100828.56
2023-03-29T17:08:22.737Z,100818.28
2023-03-29T17:10:53.067Z,100825.25
2023-03-29T17:13:23.732Z,100827.09
2023-03-29T17:15:52.784Z,100821.13
2023-03-29T17:18:20.516Z,100816.59
2023-03-29T17:20:48.247Z,100817.63
2023-03-29T17:23:15.808Z,100815.34
2023-03-29T17:25:43.611Z,100817.22
2023-03-29T17:28:11.390Z,100804.84
2023-03-29T17:30:40.680Z,100813.09
2023-03-29T17:33:08.412Z,100814.53
2023-03-29T17:35:36.064Z,100808.34
2023-03-29T17:38:04.315Z,100808.75
2023-03-29T17:40:31.854Z,100811.84
2023-03-29T17:42:59.353Z,100811.44
2023-03-29T17:45:27.148Z,100815.34
2023-03-29T17:47:56.270Z,100814.34
2023-03-29T17:50:23.936Z,100810.63
2023-03-29T17:52:51.483Z,100807.75
2023-03-29T17:55:20.900Z,100800.75
2023-03-29T17:57:49.700Z,100805.50
2023-03-29T18:00:18.014Z,100811.63
2023-03-29T18:02:45.872Z,100804.44
2023-03-29T18:05:14.932Z,100814.72
2023-03-29T18:07:42.520Z,100814.72
2023-03-29T18:10:11.210Z,100809.59
2023-03-29T18:12:38.813Z,100805.50
2023-03-29T18:15:07.812Z,100801.16
2023-03-29T18:17:36.451Z,100802.19
2023-03-29T18:20:10.904Z,100803.84
2023-03-29T18:22:41.203Z,100794.16
2023-03-29T18:25:10.007Z,100793.16
2023-03-29T18:27:37.881Z,100790.47
2023-03-29T18:30:07.376Z,100778.13
2023-03-29T18:32:35.005Z,100782.22
2023-03-29T18:35:03.098Z,100777.09
2023-03-29T18:37:30.946Z,100770.09
2023-03-29T18:40:00.053Z,100773.19
2023-03-29T18:42:27.717Z,100774.63
2023-03-29T18:44:55.259Z,100781.03
2023-03-29T18:47:22.819Z,100775.88
2023-03-29T18:49:50.329Z,100780.84
2023-03-29T18:52:17.957Z,100782.47
2023-03-29T18:54:45.458Z,100792.34
2023-03-29T18:57:14.409Z,100788.22
2023-03-29T18:59:41.943Z,100790.91
2023-03-29T19:02:11.003Z,100783.53
2023-03-29T19:04:38.551Z,100784.13
2023-03-29T19:07:06.709Z,100788.25
2023-03-29T19:09:34.217Z,100788.88
2023-03-29T19:12:01.737Z,100787.47
2023-03-29T19:14:30.973Z,100784.78
2023-03-29T19:16:58.533Z,100786.00
2023-03-29T19:19:27.075Z,100785.38
2023-03-29T19:21:55.537Z,100785.22
2023-03-29T19:24:24.366Z,100782.91
2023-03-29T19:26:52.635Z,100777.16
2023-03-29T19:29:20.527Z,100778.41
2023-03-29T19:31:51.754Z,100781.69
2023-03-29T19:34:22.756Z,100780.47
2023-03-29T19:36:50.443Z,100774.91
2023-03-29T19:39:18.076Z,100774.09
2023-03-29T19:41:45.728Z,100777.81
2023-03-29T19:44:13.666Z,100773.25
2023-03-29T19:46:41.762Z,100775.94
2023-03-29T19:49:13.381Z,100779.66
2023-03-29T19:51:40.985Z,100773.50
2023-03-29T19:54:08.641Z,100771.84
2023-03-29T19:56:36.230Z,100772.66
2023-03-29T19:59:03.797Z,100770.22
2023-03-29T20:03:59.964Z,100759.94
2023-03-29T20:06:28.894Z,100762.81
2023-03-29T20:08:56.472Z,100751.34
2023-03-29T20:11:24.545Z,100748.25
2023-03-29T20:13:52.188Z,100744.34
2023-03-29T20:16:24.176Z,100742.50
2023-03-29T20:18:53.864Z,100738.78
2023-03-29T20:21:21.472Z,100736.09
2023-03-29T20:23:50.349Z,100733.66
2023-03-29T20:26:18.100Z,100720.91
2023-03-29T20:28:46.083Z,100716.81
2023-03-29T20:31:13.756Z,100715.16
2023-03-29T20:33:44.243Z,100717.63
2023-03-29T20:36:12.717Z,100708.19
2023-03-29T20:38:40.540Z,100711.88
2023-03-29T20:41:10.692Z,100708.59
2023-03-29T20:43:38.305Z,100701.19
2023-03-29T20:46:14.194Z,100695.84
2023-03-29T20:48:45.721Z,100693.19
2023-03-29T20:51:14.180Z,100683.09
2023-03-29T20:53:44.345Z,100687.66
2023-03-29T20:56:13.932Z,100678.81
2023-03-29T20:58:42.057Z,100669.75
2023-03-29T21:01:09.955Z,100665.88
2023-03-29T21:03:37.944Z,100666.28
2023-03-29T21:06:05.801Z,100672.06
2023-03-29T21:08:33.510Z,100665.28
2023-03-29T21:11:01.239Z,100670.41
2023-03-29T21:13:33.769Z,100665.06
2023-03-29T21:16:04.080Z,100662.56
2023-03-29T21:18:31.628Z,100658.88
2023-03-29T21:20:59.219Z,100660.94
2023-03-29T21:23:26.913Z,100663.63
2023-03-29T21:25:54.462Z,100658.28
2023-03-29T21:28:22.057Z,100655.19
2023-03-29T21:30:50.942Z,100653.97
2023-03-29T21:33:18.501Z,100663.41
2023-03-29T21:35:48.349Z,100645.75
2023-03-29T21:38:16.668Z,100640.81
2023-03-29T21:40:44.214Z,100634.66
2023-03-29T21:43:11.759Z,100638.34
2023-03-29T21:45:39.347Z,100628.94
2023-03-29T21:48:08.383Z,100628.94
2023-03-29T21:50:37.153Z,100633.44
2023-03-29T21:53:04.751Z,100635.94
2023-03-29T21:55:34.134Z,100627.31
2023-03-29T21:58:01.749Z,100620.72
2023-03-29T22:00:29.574Z,100617.47
2023-03-29T22:02:57.369Z,100611.50
2023-03-29T22:05:27.124Z,100612.53
2023-03-29T22:08:00.074Z,100605.97
2023-03-29T22:10:27.917Z,100600.88
2023-03-29T22:12:56.057Z,100597.78
2023-03-29T22:15:24.236Z,100598.97
2023-03-29T22:17:53.185Z,100598.56
2023-03-29T22:20:22.121Z,100590.38
2023-03-29T22:22:51.965Z,100586.88
2023-03-29T22:25:20.618Z,100586.69
2023-03-29T22:27:49.500Z,100576.00
2023-03-29T22:30:18.026Z,100574.78
2023-03-29T22:32:45.690Z,100576.84
2023-03-29T22:35:13.254Z,100573.13
2023-03-29T22:37:42.467Z,100570.09
2023-03-29T22:40:13.164Z,100564.53
2023-03-29T22:42:40.891Z,100560.84
2023-03-29T22:45:09.864Z,100552.25
2023-03-29T22:47:37.441Z,100556.16
2023-03-29T22:50:06.144Z,100542.81
2023-03-29T22:52:33.773Z,100539.50
2023-03-29T22:55:01.284Z,100530.91
2023-03-29T22:57:30.137Z,100518.59
2023-03-29T22:59:57.667Z,100518.81
2023-03-29T23:02:25.395Z,100519.84
2023-03-29T23:04:52.985Z,100518.59
2023-03-29T23:07:20.694Z,100521.91
2023-03-29T23:09:48.317Z,100519.00
2023-03-29T23:12:15.880Z,100515.31
2023-03-29T23:14:45.084Z,100504.63
2023-03-29T23:17:13.366Z,100500.97
2023-03-29T23:19:41.467Z,100485.38
2023-03-29T23:22:09.053Z,100483.91
2023-03-29T23:24:36.651Z,100488.03
2023-03-29T23:27:05.418Z,100481.88
2023-03-29T23:29:34.458Z,100476.56
2023-03-29T23:32:03.530Z,100476.38
2023-03-29T23:34:31.426Z,100470.81
2023-03-29T23:36:59.031Z,100461.16
2023-03-29T23:39:26.631Z,100459.91
2023-03-29T23:41:54.293Z,100455.38
2023-03-29T23:44:21.934Z,100445.56
2023-03-29T23:46:49.551Z,100445.13
2023-03-29T23:49:18.540Z,100437.75
2023-03-29T23:51:48.212Z,100444.72
2023-03-29T23:54:17.164Z,100433.28
2023-03-29T23:56:44.854Z,100439.38
2023-03-29T23:59:12.491Z,100449.22
